createdAt,value
2019-02-20T00:00:03.838Z,15.20
2019-02-20T00:01:03.776Z,16.30
2019-02-20T00:02:03.706Z,15.10
2019-02-20T00:03:03.639Z,16.50
2019-02-20T00:04:03.578Z,19.00
2019-02-20T00:05:03.521Z,17.90
2019-02-20T00:06:03.445Z,20.30
2019-02-20T00:07:03.377Z,18.50
2019-02-20T00:08:03.312Z,17.10
2019-02-20T00:09:03.249Z,18.80
2019-02-20T00:10:03.185Z,18.00
2019-02-20T00:11:03.119Z,17.40
2019-02-20T00:12:03.058Z,19.30
2019-02-20T00:13:02.988Z,15.40
2019-02-20T00:14:02.931Z,15.80
2019-02-20T00:15:02.859Z,17.50
2019-02-20T00:16:02.808Z,15.10
2019-02-20T00:17:02.731Z,17.70
2019-02-20T00:18:02.663Z,20.40
2019-02-20T00:19:02.612Z,16.80
2019-02-20T00:20:02.535Z,15.70
2019-02-20T00:21:02.469Z,15.70
2019-02-20T00:22:02.404Z,17.60
2019-02-20T00:23:02.343Z,15.70
2019-02-20T00:24:02.290Z,18.40
2019-02-20T00:25:02.217Z,16.70
2019-02-20T00:26:02.149Z,17.90
2019-02-20T00:27:02.086Z,15.70
2019-02-20T00:28:02.014Z,15.00
2019-02-20T00:29:01.952Z,17.20
2019-02-20T00:30:01.919Z,16.00
2019-02-20T00:31:01.824Z,17.90
2019-02-20T00:32:01.763Z,15.40
2019-02-20T00:33:01.700Z,15.40
2019-02-20T00:34:01.622Z,13.40
2019-02-20T00:35:01.573Z,18.30
2019-02-20T00:36:01.519Z,18.80
2019-02-20T00:37:01.427Z,16.20
2019-02-20T00:38:01.367Z,17.20
2019-02-20T00:39:01.295Z,16.60
2019-02-20T00:40:01.230Z,17.10
2019-02-20T00:41:01.179Z,15.50
2019-02-20T00:42:01.113Z,18.50
2019-02-20T00:43:01.044Z,17.60
2019-02-20T00:44:00.970Z,18.70
2019-02-20T00:45:00.908Z,20.10
2019-02-20T00:46:00.844Z,19.10
2019-02-20T00:47:00.777Z,16.50
2019-02-20T00:48:00.709Z,17.90
2019-02-20T00:49:00.649Z,16.00
2019-02-20T00:50:00.585Z,19.30
2019-02-20T00:51:00.523Z,15.80
2019-02-20T00:52:00.464Z,19.10
2019-02-20T00:53:00.415Z,15.40
2019-02-20T00:54:00.319Z,16.70
2019-02-20T00:55:00.499Z,17.20
2019-02-20T00:56:00.187Z,17.80
2019-02-20T00:57:00.153Z,16.90
2019-02-20T00:58:00.065Z,18.40
2019-02-20T00:58:59.994Z,17.60
2019-02-20T00:59:59.935Z,17.60
2019-02-20T01:00:59.864Z,16.80
2019-02-20T01:01:59.807Z,18.50
2019-02-20T01:02:59.751Z,16.70
2019-02-20T01:03:59.669Z,17.20
2019-02-20T01:04:59.604Z,18.00
2019-02-20T01:05:59.542Z,16.90
2019-02-20T01:06:59.476Z,17.50
2019-02-20T01:07:59.412Z,16.90
2019-02-20T01:08:59.381Z,16.30
2019-02-20T01:09:59.279Z,18.80
2019-02-20T01:10:59.217Z,15.90
2019-02-20T01:11:59.151Z,15.40
2019-02-20T01:12:59.084Z,17.70
2019-02-20T01:13:59.025Z,19.30
2019-02-20T01:14:58.957Z,19.00
2019-02-20T01:15:58.889Z,17.70
2019-02-20T01:16:58.831Z,17.00
2019-02-20T01:17:58.768Z,18.90
2019-02-20T01:18:58.696Z,18.90
2019-02-20T01:19:58.642Z,18.90
2019-02-20T01:20:58.562Z,14.40
2019-02-20T01:21:58.499Z,16.90
2019-02-20T01:23:00.139Z,15.90
2019-02-20T01:23:58.373Z,14.50
2019-02-20T01:24:58.307Z,16.90
2019-02-20T01:25:58.237Z,17.20
2019-02-20T01:26:58.187Z,20.20
2019-02-20T01:27:58.123Z,19.10
2019-02-20T01:28:58.042Z,17.90
2019-02-20T01:29:57.988Z,16.00
2019-02-20T01:30:57.914Z,18.30
2019-02-20T01:31:57.851Z,18.10
2019-02-20T01:32:57.785Z,18.10
2019-02-20T01:33:57.718Z,17.70
2019-02-20T01:34:57.656Z,17.80
2019-02-20T01:35:57.679Z,16.90
2019-02-20T01:36:57.543Z,18.10
2019-02-20T01:37:57.466Z,17.60
2019-02-20T01:38:57.398Z,18.70
2019-02-20T01:39:57.349Z,18.60
2019-02-20T01:40:57.262Z,17.30
2019-02-20T01:41:57.207Z,19.20
2019-02-20T01:42:57.132Z,19.00
2019-02-20T01:43:57.070Z,22.40
2019-02-20T01:44:57.007Z,17.10
2019-02-20T01:45:56.938Z,17.20
2019-02-20T01:46:56.894Z,20.30
2019-02-20T01:47:56.847Z,15.10
2019-02-20T01:48:56.753Z,22.40
2019-02-20T01:49:56.688Z,18.50
2019-02-20T01:50:56.615Z,20.10
2019-02-20T01:51:56.548Z,18.40
2019-02-20T01:52:56.488Z,17.70
2019-02-20T01:53:56.423Z,17.50
2019-02-20T01:54:56.352Z,17.80
2019-02-20T01:55:56.286Z,19.20
2019-02-20T01:56:57.289Z,16.50
2019-02-20T01:57:56.154Z,18.10
2019-02-20T01:58:56.097Z,15.40
2019-02-20T01:59:56.023Z,17.10
2019-02-20T02:00:55.962Z,16.60
2019-02-20T02:01:55.896Z,16.30
2019-02-20T02:02:55.829Z,19.50
2019-02-20T02:03:55.765Z,18.60
2019-02-20T02:04:55.699Z,15.80
2019-02-20T02:05:55.634Z,15.90
2019-02-20T02:06:55.570Z,18.30
2019-02-20T02:07:55.506Z,19.50
2019-02-20T02:08:55.441Z,17.10
2019-02-20T02:09:55.377Z,16.10
2019-02-20T02:10:55.310Z,17.20
2019-02-20T02:11:55.252Z,19.30
2019-02-20T02:12:55.186Z,17.80
2019-02-20T02:13:55.145Z,19.60
2019-02-20T02:14:55.045Z,18.40
2019-02-20T02:15:54.990Z,15.70
2019-02-20T02:16:54.919Z,14.10
2019-02-20T02:17:54.854Z,14.20
2019-02-20T02:18:54.808Z,16.80
2019-02-20T02:19:54.724Z,12.00
2019-02-20T02:20:54.672Z,14.80
2019-02-20T02:21:54.586Z,13.70
2019-02-20T02:22:54.527Z,13.80
2019-02-20T02:23:54.469Z,15.00
2019-02-20T02:24:54.398Z,14.10
2019-02-20T02:25:54.337Z,14.40
2019-02-20T02:26:54.260Z,14.90
2019-02-20T02:27:54.203Z,17.30
2019-02-20T02:28:54.147Z,12.00
2019-02-20T02:29:54.070Z,12.40
2019-02-20T02:30:54.013Z,12.80
2019-02-20T02:31:53.935Z,13.10
2019-02-20T02:32:53.875Z,12.00
2019-02-20T02:33:53.813Z,12.60
2019-02-20T02:34:53.745Z,12.10
2019-02-20T02:35:53.679Z,14.00
2019-02-20T02:36:53.609Z,14.70
2019-02-20T02:37:53.547Z,15.40
2019-02-20T02:38:53.524Z,14.80
2019-02-20T02:39:53.416Z,13.60
2019-02-20T02:40:53.354Z,14.10
2019-02-20T02:41:53.286Z,14.70
2019-02-20T02:42:53.223Z,13.30
2019-02-20T02:43:53.157Z,12.60
2019-02-20T02:44:53.089Z,14.10
2019-02-20T02:45:53.030Z,14.60
2019-02-20T02:46:52.959Z,16.30
2019-02-20T02:47:52.899Z,13.80
2019-02-20T02:48:52.826Z,13.10
2019-02-20T02:49:52.762Z,12.10
2019-02-20T02:50:52.697Z,13.90
2019-02-20T02:51:52.640Z,15.40
2019-02-20T02:52:52.567Z,14.50
2019-02-20T02:53:52.500Z,13.70
2019-02-20T02:54:52.437Z,14.00
2019-02-20T02:55:52.386Z,14.20
2019-02-20T02:56:52.304Z,11.70
2019-02-20T02:57:52.256Z,12.60
2019-02-20T02:58:52.174Z,14.80
2019-02-20T02:59:52.111Z,13.80
2019-02-20T03:00:54.194Z,13.10
2019-02-20T03:01:51.989Z,14.80
2019-02-20T03:02:51.934Z,13.50
2019-02-20T03:03:51.854Z,13.10
2019-02-20T03:04:51.796Z,12.80
2019-02-20T03:05:51.719Z,14.00
2019-02-20T03:06:51.652Z,12.30
2019-02-20T03:07:51.588Z,14.40
2019-02-20T03:08:51.524Z,14.50
2019-02-20T03:09:51.487Z,16.10
2019-02-20T03:10:51.389Z,14.20
2019-02-20T03:11:51.330Z,15.00
2019-02-20T03:12:51.293Z,13.60
2019-02-20T03:13:51.195Z,13.80
2019-02-20T03:14:51.149Z,12.40
2019-02-20T03:15:51.066Z,14.10
2019-02-20T03:16:51.011Z,15.90
2019-02-20T03:17:50.936Z,14.00
2019-02-20T03:18:50.865Z,16.00
2019-02-20T03:19:50.809Z,20.00
2019-02-20T03:20:50.748Z,15.90
2019-02-20T03:21:50.680Z,13.50
2019-02-20T03:22:50.604Z,18.40
2019-02-20T03:23:50.542Z,13.20
2019-02-20T03:24:50.514Z,14.40
2019-02-20T03:25:50.418Z,12.90
2019-02-20T03:26:50.355Z,13.80
2019-02-20T03:27:50.286Z,14.20
2019-02-20T03:28:50.216Z,12.60
2019-02-20T03:29:50.151Z,12.00
2019-02-20T03:30:50.097Z,14.10
2019-02-20T03:31:50.038Z,13.70
2019-02-20T03:32:49.954Z,13.10
2019-02-20T03:33:49.897Z,14.80
2019-02-20T03:34:49.838Z,13.20
2019-02-20T03:35:49.760Z,12.90
2019-02-20T03:36:49.697Z,13.60
2019-02-20T03:37:49.632Z,11.30
2019-02-20T03:38:49.572Z,12.10
2019-02-20T03:39:49.493Z,12.70
2019-02-20T03:40:49.429Z,14.60
2019-02-20T03:41:49.379Z,14.80
2019-02-20T03:42:49.313Z,12.10
2019-02-20T03:43:49.237Z,11.80
2019-02-20T03:44:49.167Z,11.30
2019-02-20T03:45:49.108Z,12.60
2019-02-20T03:46:49.039Z,12.40
2019-02-20T03:47:48.970Z,13.00
2019-02-20T03:48:48.921Z,15.20
2019-02-20T03:49:48.845Z,12.80
2019-02-20T03:50:48.776Z,14.00
2019-02-20T03:51:48.713Z,12.30
2019-02-20T03:52:48.646Z,15.40
2019-02-20T03:53:51.483Z,13.50
2019-02-20T03:54:48.523Z,11.10
2019-02-20T03:55:48.449Z,13.70
2019-02-20T03:56:48.386Z,13.90
2019-02-20T03:57:48.319Z,12.60
2019-02-20T03:58:48.254Z,11.30
2019-02-20T03:59:48.189Z,13.00
2019-02-20T04:00:48.124Z,13.30
2019-02-20T04:01:48.060Z,13.90
2019-02-20T04:02:47.998Z,14.20
2019-02-20T04:03:47.930Z,11.70
2019-02-20T04:04:47.873Z,12.70
2019-02-20T04:05:47.799Z,12.40
2019-02-20T04:06:47.734Z,13.40
2019-02-20T04:07:47.666Z,12.70
2019-02-20T04:08:47.602Z,12.20
2019-02-20T04:09:47.539Z,13.40
2019-02-20T04:10:47.482Z,12.00
2019-02-20T04:11:47.411Z,13.00
2019-02-20T04:12:47.342Z,11.80
2019-02-20T04:13:47.274Z,12.90
2019-02-20T04:14:47.217Z,11.30
2019-02-20T04:15:47.146Z,11.80
2019-02-20T04:16:47.084Z,11.80
2019-02-20T04:17:47.015Z,12.40
2019-02-20T04:18:46.945Z,14.90
2019-02-20T04:19:46.881Z,12.00
2019-02-20T04:20:46.817Z,12.00
2019-02-20T04:21:46.751Z,10.50
2019-02-20T04:22:46.685Z,14.10
2019-02-20T04:23:46.625Z,16.00
2019-02-20T04:24:46.559Z,13.00
2019-02-20T04:25:46.496Z,15.70
2019-02-20T04:26:46.425Z,13.40
2019-02-20T04:27:46.361Z,12.70
2019-02-20T04:28:46.306Z,12.80
2019-02-20T04:29:46.233Z,13.20
2019-02-20T04:30:46.165Z,13.50
2019-02-20T04:31:46.105Z,14.10
2019-02-20T04:32:46.035Z,12.50
2019-02-20T04:33:45.969Z,12.00
2019-02-20T04:34:45.904Z,13.20
2019-02-20T04:35:45.838Z,14.10
2019-02-20T04:36:45.771Z,12.70
2019-02-20T04:37:45.706Z,15.10
2019-02-20T04:38:45.646Z,13.30
2019-02-20T04:39:45.576Z,12.30
2019-02-20T04:40:45.509Z,15.00
2019-02-20T04:41:45.448Z,14.70
2019-02-20T04:42:45.382Z,15.80
2019-02-20T04:43:45.318Z,13.00
2019-02-20T04:44:45.248Z,13.00
2019-02-20T04:45:45.192Z,11.90
2019-02-20T04:46:45.118Z,12.50
2019-02-20T04:47:45.064Z,15.40
2019-02-20T04:48:44.987Z,12.70
2019-02-20T04:49:44.928Z,13.40
2019-02-20T04:50:44.871Z,13.20
2019-02-20T04:51:44.793Z,12.10
2019-02-20T04:52:44.728Z,12.10
2019-02-20T04:53:44.678Z,11.70
2019-02-20T04:54:44.600Z,13.90
2019-02-20T04:55:44.532Z,16.50
2019-02-20T04:56:44.475Z,14.60
2019-02-20T04:57:44.399Z,12.20
2019-02-20T04:58:44.332Z,15.20
2019-02-20T04:59:44.269Z,19.50
2019-02-20T05:00:44.236Z,15.90
2019-02-20T05:01:44.151Z,15.40
2019-02-20T05:02:44.075Z,15.80
2019-02-20T05:03:44.008Z,12.70
2019-02-20T05:04:43.943Z,14.90
2019-02-20T05:05:43.877Z,14.90
2019-02-20T05:06:43.813Z,13.60
2019-02-20T05:07:43.747Z,11.40
2019-02-20T05:08:43.681Z,14.30
2019-02-20T05:09:43.615Z,13.60
2019-02-20T05:10:43.567Z,14.50
2019-02-20T05:11:43.482Z,12.80
2019-02-20T05:12:43.420Z,13.10
2019-02-20T05:13:43.374Z,12.20
2019-02-20T05:14:43.287Z,13.70
2019-02-20T05:15:43.231Z,12.60
2019-02-20T05:16:43.161Z,14.10
2019-02-20T05:17:43.095Z,14.10
2019-02-20T05:18:43.039Z,14.60
2019-02-20T05:19:42.978Z,10.90
2019-02-20T05:20:42.917Z,12.70
2019-02-20T05:21:42.830Z,12.80
2019-02-20T05:22:42.766Z,12.50
2019-02-20T05:23:43.046Z,12.90
2019-02-20T05:24:42.636Z,14.70
2019-02-20T05:25:42.574Z,14.50
2019-02-20T05:26:42.507Z,12.60
2019-02-20T05:27:42.447Z,13.60
2019-02-20T05:28:42.377Z,11.90
2019-02-20T05:29:42.310Z,15.90
2019-02-20T05:30:42.259Z,13.60
2019-02-20T05:31:42.177Z,16.50
2019-02-20T05:32:42.114Z,13.00
2019-02-20T05:33:42.048Z,12.70
2019-02-20T05:34:41.988Z,12.40
2019-02-20T05:35:41.938Z,12.10
2019-02-20T05:36:41.851Z,13.00
2019-02-20T05:37:41.787Z,13.30
2019-02-20T05:38:41.719Z,12.00
2019-02-20T05:39:41.662Z,12.40
2019-02-20T05:40:41.593Z,11.80
2019-02-20T05:41:41.529Z,12.80
2019-02-20T05:42:41.463Z,11.90
2019-02-20T05:43:41.390Z,13.50
2019-02-20T05:44:41.341Z,12.70
2019-02-20T05:45:41.260Z,14.10
2019-02-20T05:46:41.200Z,10.50
2019-02-20T05:47:41.132Z,12.60
2019-02-20T05:48:41.067Z,15.50
2019-02-20T05:49:41.003Z,10.70
2019-02-20T05:50:40.943Z,12.30
2019-02-20T05:51:40.881Z,13.50
2019-02-20T05:52:40.811Z,13.30
2019-02-20T05:53:40.755Z,13.60
2019-02-20T05:54:40.684Z,15.10
2019-02-20T05:55:40.613Z,11.20
2019-02-20T05:56:40.548Z,12.50
2019-02-20T05:57:40.482Z,13.70
2019-02-20T05:58:40.424Z,13.60
2019-02-20T05:59:40.351Z,11.90
2019-02-20T06:00:40.294Z,14.10
2019-02-20T06:01:40.235Z,13.40
2019-02-20T06:02:40.155Z,11.80
2019-02-20T06:03:40.086Z,13.30
2019-02-20T06:04:40.023Z,14.40
2019-02-20T06:05:39.953Z,10.50
2019-02-20T06:06:39.902Z,11.90
2019-02-20T06:07:39.828Z,11.60
2019-02-20T06:08:39.760Z,11.30
2019-02-20T06:09:39.704Z,10.60
2019-02-20T06:10:39.663Z,10.10
2019-02-20T06:11:39.572Z,13.00
2019-02-20T06:12:39.497Z,12.90
2019-02-20T06:13:39.449Z,12.50
2019-02-20T06:14:39.369Z,14.60
2019-02-20T06:15:39.304Z,11.30
2019-02-20T06:16:39.239Z,12.50
2019-02-20T06:17:39.185Z,11.40
2019-02-20T06:18:39.134Z,13.40
2019-02-20T06:19:39.042Z,11.80
2019-02-20T06:20:38.998Z,11.30
2019-02-20T06:21:38.927Z,10.60
2019-02-20T06:22:38.847Z,12.00
2019-02-20T06:23:38.781Z,13.40
2019-02-20T06:24:44.127Z,13.80
2019-02-20T06:25:38.666Z,13.50
2019-02-20T06:26:38.580Z,11.20
2019-02-20T06:27:38.519Z,11.00
2019-02-20T06:28:38.478Z,12.90
2019-02-20T06:29:38.386Z,10.10
2019-02-20T06:30:38.323Z,9.70
2019-02-20T06:31:38.261Z,10.20
2019-02-20T06:32:38.211Z,9.70
2019-02-20T06:33:38.126Z,12.40
2019-02-20T06:34:38.061Z,11.30
2019-02-20T06:35:38.008Z,10.70
2019-02-20T06:36:37.926Z,11.10
2019-02-20T06:37:37.865Z,11.40
2019-02-20T06:38:37.801Z,12.30
2019-02-20T06:39:37.744Z,14.90
2019-02-20T06:40:37.669Z,11.30
2019-02-20T06:41:39.397Z,12.50
2019-02-20T06:42:37.548Z,11.10
2019-02-20T06:43:37.471Z,15.20
2019-02-20T06:44:37.410Z,10.60
2019-02-20T06:45:37.344Z,11.50
2019-02-20T06:46:37.279Z,10.20
2019-02-20T06:47:37.219Z,11.60
2019-02-20T06:48:37.145Z,12.50
2019-02-20T06:49:37.084Z,12.20
2019-02-20T06:50:37.015Z,13.10
2019-02-20T06:51:36.991Z,13.10
2019-02-20T06:52:36.886Z,15.80
2019-02-20T06:53:36.826Z,13.30
2019-02-20T06:54:36.751Z,12.70
2019-02-20T06:55:36.705Z,11.30
2019-02-20T06:56:36.622Z,12.30
2019-02-20T06:57:36.555Z,14.40
2019-02-20T06:58:36.495Z,13.00
2019-02-20T06:59:36.427Z,13.00
2019-02-20T07:00:36.359Z,11.00
2019-02-20T07:01:36.294Z,13.90
2019-02-20T07:02:36.227Z,12.90
2019-02-20T07:03:36.164Z,12.50
2019-02-20T07:04:36.101Z,11.70
2019-02-20T07:05:36.032Z,12.90
2019-02-20T07:06:35.970Z,13.90
2019-02-20T07:07:35.904Z,12.30
2019-02-20T07:08:35.840Z,15.50
2019-02-20T07:09:35.769Z,14.90
2019-02-20T07:10:35.711Z,10.10
2019-02-20T07:11:35.640Z,11.10
2019-02-20T07:12:35.576Z,10.70
2019-02-20T07:13:35.509Z,12.00
2019-02-20T07:14:35.444Z,10.00
2019-02-20T07:15:35.380Z,12.10
2019-02-20T07:16:35.323Z,12.50
2019-02-20T07:17:35.259Z,12.70
2019-02-20T07:18:35.196Z,11.20
2019-02-20T07:19:35.114Z,13.40
2019-02-20T07:20:35.050Z,14.50
2019-02-20T07:21:34.986Z,11.70
2019-02-20T07:22:34.918Z,13.10
2019-02-20T07:23:34.863Z,11.80
2019-02-20T07:24:34.787Z,13.00
2019-02-20T07:25:34.743Z,11.30
2019-02-20T07:26:34.695Z,11.10
2019-02-20T07:27:34.592Z,12.70
2019-02-20T07:28:34.524Z,11.90
2019-02-20T07:29:34.465Z,17.30
2019-02-20T07:30:34.399Z,13.10
2019-02-20T07:31:34.332Z,13.70
2019-02-20T07:32:34.290Z,10.80
2019-02-20T07:33:34.209Z,12.20
2019-02-20T07:34:34.150Z,12.00
2019-02-20T07:35:34.075Z,12.20
2019-02-20T07:36:34.003Z,14.20
2019-02-20T07:37:33.944Z,12.40
2019-02-20T07:38:33.876Z,12.30
2019-02-20T07:39:33.814Z,17.20
2019-02-20T07:40:33.753Z,11.30
2019-02-20T07:41:33.686Z,12.50
2019-02-20T07:42:33.625Z,14.50
2019-02-20T07:43:33.562Z,16.90
2019-02-20T07:44:33.485Z,14.30
2019-02-20T07:45:33.422Z,11.50
2019-02-20T07:46:33.379Z,10.10
2019-02-20T07:47:33.301Z,12.00
2019-02-20T07:48:33.230Z,12.00
2019-02-20T07:49:33.161Z,10.90
2019-02-20T07:50:33.108Z,13.00
2019-02-20T07:51:33.034Z,13.30
2019-02-20T07:52:32.970Z,13.00
2019-02-20T07:53:32.902Z,10.70
2019-02-20T07:54:32.838Z,11.90
2019-02-20T07:55:32.775Z,13.60
2019-02-20T07:56:32.737Z,14.80
2019-02-20T07:57:32.644Z,11.50
2019-02-20T07:58:32.590Z,12.80
2019-02-20T07:59:32.519Z,11.10
2019-02-20T08:00:32.455Z,11.90
2019-02-20T08:01:32.380Z,15.30
2019-02-20T08:02:32.323Z,12.30
2019-02-20T08:03:32.261Z,9.80
2019-02-20T08:04:32.187Z,10.20
2019-02-20T08:05:32.126Z,11.60
2019-02-20T08:06:32.055Z,11.40
2019-02-20T08:07:31.994Z,12.80
2019-02-20T08:08:31.937Z,10.30
2019-02-20T08:09:31.863Z,12.70
2019-02-20T08:10:31.805Z,10.90
2019-02-20T08:11:31.734Z,11.80
2019-02-20T08:12:31.668Z,12.10
2019-02-20T08:13:39.101Z,12.20
2019-02-20T08:14:31.538Z,12.20
2019-02-20T08:15:31.476Z,11.70
2019-02-20T08:16:31.410Z,13.80
2019-02-20T08:17:31.346Z,11.90
2019-02-20T08:18:31.283Z,10.60
2019-02-20T08:19:31.216Z,11.40
2019-02-20T08:20:31.152Z,11.10
2019-02-20T08:21:31.087Z,11.70
2019-02-20T08:22:31.021Z,10.80
2019-02-20T08:23:30.976Z,11.00
2019-02-20T08:24:30.887Z,11.60
2019-02-20T08:25:30.834Z,10.60
2019-02-20T08:26:30.798Z,10.80
2019-02-20T08:27:30.698Z,13.40
2019-02-20T08:28:30.642Z,11.40
2019-02-20T08:29:30.569Z,10.30
2019-02-20T08:30:30.519Z,12.50
2019-02-20T08:31:30.437Z,10.90
2019-02-20T08:32:30.372Z,14.70
2019-02-20T08:33:30.321Z,11.50
2019-02-20T08:34:30.244Z,14.20
2019-02-20T08:35:30.181Z,9.70
2019-02-20T08:36:30.125Z,10.90
2019-02-20T08:37:30.049Z,12.40
2019-02-20T08:38:29.990Z,12.20
2019-02-20T08:39:29.923Z,11.40
2019-02-20T08:40:29.862Z,9.60
2019-02-20T08:41:29.788Z,8.60
2019-02-20T08:42:29.727Z,13.50
2019-02-20T08:43:29.674Z,11.00
2019-02-20T08:44:29.598Z,9.80
2019-02-20T08:45:29.546Z,11.30
2019-02-20T08:46:29.475Z,11.00
2019-02-20T08:47:29.403Z,9.10
2019-02-20T08:48:29.341Z,12.90
2019-02-20T08:49:29.280Z,9.00
2019-02-20T08:50:29.231Z,9.80
2019-02-20T08:51:29.162Z,10.90
2019-02-20T08:52:29.090Z,6.90
2019-02-20T08:53:29.022Z,8.90
2019-02-20T08:54:28.956Z,11.30
2019-02-20T08:55:31.940Z,7.50
2019-02-20T08:56:28.828Z,7.30
2019-02-20T08:57:28.759Z,12.40
2019-02-20T08:58:28.698Z,8.90
2019-02-20T08:59:28.631Z,9.20
2019-02-20T09:00:28.568Z,8.40
2019-02-20T09:01:28.508Z,8.30
2019-02-20T09:02:28.439Z,10.70
2019-02-20T09:03:28.374Z,8.70
2019-02-20T09:04:28.309Z,9.40
2019-02-20T09:05:28.247Z,10.20
2019-02-20T09:06:28.193Z,10.40
2019-02-20T09:07:28.117Z,10.90
2019-02-20T09:08:28.053Z,8.80
2019-02-20T09:09:27.991Z,8.70
2019-02-20T09:10:27.921Z,8.10
2019-02-20T09:11:27.879Z,10.60
2019-02-20T09:12:27.796Z,9.60
2019-02-20T09:13:27.735Z,9.10
2019-02-20T09:14:27.663Z,8.30
2019-02-20T09:15:27.611Z,9.00
2019-02-20T09:16:27.550Z,7.70
2019-02-20T09:17:27.474Z,11.20
2019-02-20T09:18:27.410Z,8.50
2019-02-20T09:19:27.345Z,9.70
2019-02-20T09:20:27.278Z,9.20
2019-02-20T09:21:27.218Z,14.30
2019-02-20T09:22:27.150Z,8.80
2019-02-20T09:23:27.088Z,8.20
2019-02-20T09:24:27.024Z,10.30
2019-02-20T09:25:26.963Z,10.20
2019-02-20T09:26:26.894Z,10.00
2019-02-20T09:27:26.829Z,9.00
2019-02-20T09:28:26.770Z,8.50
2019-02-20T09:29:26.700Z,9.00
2019-02-20T09:30:28.857Z,9.00
2019-02-20T09:31:26.576Z,10.80
2019-02-20T09:32:26.507Z,9.50
2019-02-20T09:33:26.446Z,8.30
2019-02-20T09:34:26.379Z,8.80
2019-02-20T09:35:26.315Z,8.00
2019-02-20T09:36:26.261Z,10.50
2019-02-20T09:37:26.188Z,10.70
2019-02-20T09:38:26.121Z,10.70
2019-02-20T09:39:26.064Z,11.10
2019-02-20T09:40:25.992Z,10.70
2019-02-20T09:41:25.932Z,11.10
2019-02-20T09:42:25.867Z,12.20
2019-02-20T09:43:25.801Z,9.80
2019-02-20T09:44:25.742Z,9.10
2019-02-20T09:45:25.673Z,7.70
2019-02-20T09:46:25.610Z,8.20
2019-02-20T09:47:25.547Z,9.10
2019-02-20T09:48:25.488Z,7.80
2019-02-20T09:49:25.424Z,10.20
2019-02-20T09:50:25.353Z,10.40
2019-02-20T09:51:25.293Z,7.80
2019-02-20T09:52:25.227Z,9.00
2019-02-20T09:53:25.167Z,8.80
2019-02-20T09:54:25.099Z,12.20
2019-02-20T09:55:25.035Z,9.60
2019-02-20T09:56:24.983Z,10.30
2019-02-20T09:57:24.911Z,13.40
2019-02-20T09:58:24.843Z,9.90
2019-02-20T09:59:24.780Z,10.00
2019-02-20T10:00:24.717Z,8.60
2019-02-20T10:01:24.650Z,12.20
2019-02-20T10:02:24.585Z,8.90
2019-02-20T10:03:24.523Z,11.10
2019-02-20T10:04:24.459Z,11.20
2019-02-20T10:05:24.395Z,9.10
2019-02-20T10:06:24.331Z,8.90
2019-02-20T10:07:24.267Z,11.90
2019-02-20T10:08:24.203Z,12.50
2019-02-20T10:09:24.141Z,11.40
2019-02-20T10:10:24.075Z,8.90
2019-02-20T10:11:24.012Z,9.30
2019-02-20T10:12:23.947Z,9.70
2019-02-20T10:13:23.883Z,9.60
2019-02-20T10:14:23.819Z,8.20
2019-02-20T10:15:23.752Z,10.70
2019-02-20T10:16:23.707Z,10.50
2019-02-20T10:17:23.632Z,8.80
2019-02-20T10:18:23.566Z,10.90
2019-02-20T10:19:23.658Z,10.20
2019-02-20T10:20:23.437Z,13.40
2019-02-20T10:21:23.375Z,9.60
2019-02-20T10:22:23.309Z,10.20
2019-02-20T10:23:23.248Z,12.30
2019-02-20T10:24:23.189Z,9.80
2019-02-20T10:25:23.117Z,11.60
2019-02-20T10:26:23.065Z,10.40
2019-02-20T10:27:22.993Z,9.70
2019-02-20T10:28:22.945Z,10.50
2019-02-20T10:29:22.861Z,7.20
2019-02-20T10:30:22.802Z,9.20
2019-02-20T10:31:22.747Z,9.10
2019-02-20T10:32:22.673Z,10.00
2019-02-20T10:33:22.612Z,8.80
2019-02-20T10:34:22.546Z,9.10
2019-02-20T10:35:22.484Z,8.00
2019-02-20T10:36:22.416Z,9.30
2019-02-20T10:37:22.350Z,9.10
2019-02-20T10:38:22.290Z,8.60
2019-02-20T10:39:22.223Z,6.70
2019-02-20T10:40:22.159Z,10.30
2019-02-20T10:41:22.098Z,10.50
2019-02-20T10:42:22.035Z,8.10
2019-02-20T10:43:21.968Z,10.50
2019-02-20T10:44:21.904Z,10.20
2019-02-20T10:45:21.839Z,6.60
2019-02-20T10:46:21.777Z,9.20
2019-02-20T10:47:21.713Z,9.90
2019-02-20T10:48:21.645Z,8.30
2019-02-20T10:49:21.595Z,8.80
2019-02-20T10:50:21.521Z,8.50
2019-02-20T10:51:21.460Z,11.00
2019-02-20T10:52:21.395Z,9.50
2019-02-20T10:53:21.330Z,7.50
2019-02-20T10:54:21.267Z,9.80
2019-02-20T10:55:21.203Z,7.80
2019-02-20T10:56:21.141Z,8.30
2019-02-20T10:57:21.072Z,8.70
2019-02-20T10:58:21.008Z,8.30
2019-02-20T10:59:20.962Z,8.80
2019-02-20T11:00:23.910Z,6.80
2019-02-20T11:01:20.822Z,10.10
2019-02-20T11:02:20.759Z,8.80
2019-02-20T11:03:20.696Z,7.80
2019-02-20T11:04:20.634Z,10.40
2019-02-20T11:05:20.566Z,9.00
2019-02-20T11:06:20.507Z,12.60
2019-02-20T11:07:20.441Z,8.10
2019-02-20T11:08:20.382Z,7.40
2019-02-20T11:09:20.315Z,8.70
2019-02-20T11:10:20.256Z,10.40
2019-02-20T11:11:20.189Z,11.30
2019-02-20T11:12:20.127Z,7.00
2019-02-20T11:13:20.067Z,7.40
2019-02-20T11:14:20.003Z,7.50
2019-02-20T11:15:19.942Z,9.00
2019-02-20T11:16:19.873Z,8.90
2019-02-20T11:17:19.810Z,8.90
2019-02-20T11:18:19.748Z,8.90
2019-02-20T11:19:19.684Z,8.10
2019-02-20T11:20:19.623Z,8.60
2019-02-20T11:21:19.567Z,8.30
2019-02-20T11:22:20.666Z,8.50
2019-02-20T11:23:19.482Z,11.50
2019-02-20T11:24:19.371Z,10.00
2019-02-20T11:25:19.307Z,9.80
2019-02-20T11:26:19.245Z,8.20
2019-02-20T11:27:19.514Z,9.20
2019-02-20T11:28:26.848Z,8.30
2019-02-20T11:29:19.131Z,10.30
2019-02-20T11:30:18.995Z,8.80
2019-02-20T11:31:18.932Z,6.80
2019-02-20T11:32:18.869Z,9.90
2019-02-20T11:33:18.804Z,7.00
2019-02-20T11:34:19.835Z,8.30
2019-02-20T11:35:18.677Z,6.80
2019-02-20T11:36:18.615Z,7.90
2019-02-20T11:37:18.551Z,5.20
2019-02-20T11:38:18.493Z,7.30
2019-02-20T11:39:18.437Z,8.20
2019-02-20T11:40:18.359Z,5.90
2019-02-20T11:41:18.302Z,6.60
2019-02-20T11:42:18.233Z,7.90
2019-02-20T11:43:18.178Z,5.30
2019-02-20T11:44:20.993Z,6.90
2019-02-20T11:45:18.050Z,6.20
2019-02-20T11:46:17.986Z,7.00
2019-02-20T11:47:17.929Z,6.20
2019-02-20T11:48:17.867Z,5.40
2019-02-20T11:49:17.795Z,6.70
2019-02-20T11:50:17.730Z,5.10
2019-02-20T11:51:17.671Z,6.40
2019-02-20T11:52:18.470Z,6.50
2019-02-20T11:53:17.545Z,5.30
2019-02-20T11:54:17.482Z,8.30
2019-02-20T11:55:17.418Z,11.60
2019-02-20T11:56:17.355Z,5.80
2019-02-20T11:57:17.291Z,8.60
2019-02-20T11:58:17.227Z,10.80
2019-02-20T11:59:17.171Z,8.50
2019-02-20T12:00:17.102Z,9.50
2019-02-20T12:01:17.039Z,8.70
2019-02-20T12:02:16.977Z,7.80
2019-02-20T12:03:16.913Z,6.90
2019-02-20T12:04:16.850Z,6.60
2019-02-20T12:05:16.787Z,8.40
2019-02-20T12:06:16.724Z,5.50
2019-02-20T12:07:16.661Z,7.10
2019-02-20T12:08:16.596Z,5.70
2019-02-20T12:09:16.538Z,7.90
2019-02-20T12:10:16.480Z,8.70
2019-02-20T12:11:16.417Z,7.10
2019-02-20T12:12:16.356Z,10.90
2019-02-20T12:13:16.283Z,10.20
2019-02-20T12:14:16.218Z,7.50
2019-02-20T12:15:16.159Z,6.50
2019-02-20T12:16:16.102Z,7.70
2019-02-20T12:17:16.032Z,5.80
2019-02-20T12:18:17.619Z,7.40
2019-02-20T12:19:15.914Z,6.30
2019-02-20T12:20:15.847Z,6.10
2019-02-20T12:21:15.779Z,8.00
2019-02-20T12:22:15.715Z,5.90
2019-02-20T12:23:15.655Z,7.50
2019-02-20T12:24:15.589Z,5.60
2019-02-20T12:25:15.527Z,6.00
2019-02-20T12:26:15.464Z,12.40
2019-02-20T12:27:15.402Z,6.20
2019-02-20T12:28:15.376Z,5.40
2019-02-20T12:29:15.270Z,7.00
2019-02-20T12:30:15.209Z,5.30
2019-02-20T12:31:15.165Z,6.10
2019-02-20T12:32:15.086Z,7.00
2019-02-20T12:33:15.023Z,7.80
2019-02-20T12:34:14.965Z,6.70
2019-02-20T12:35:14.905Z,6.40
2019-02-20T12:36:14.836Z,7.50
2019-02-20T12:37:14.771Z,7.00
2019-02-20T12:38:14.710Z,4.70
2019-02-20T12:39:14.651Z,6.30
2019-02-20T12:40:14.587Z,5.40
2019-02-20T12:41:14.517Z,5.10
2019-02-20T12:42:14.466Z,8.40
2019-02-20T12:43:14.392Z,5.10
2019-02-20T12:44:14.332Z,7.00
2019-02-20T12:45:14.267Z,7.60
2019-02-20T12:46:14.197Z,5.10
2019-02-20T12:47:14.141Z,7.90
2019-02-20T12:48:14.073Z,5.70
2019-02-20T12:49:14.015Z,5.80
2019-02-20T12:50:13.954Z,9.30
2019-02-20T12:51:13.889Z,7.10
2019-02-20T12:52:13.822Z,7.20
2019-02-20T12:53:13.767Z,6.80
2019-02-20T12:54:13.696Z,6.30
2019-02-20T12:55:13.648Z,10.50
2019-02-20T12:56:13.571Z,7.80
2019-02-20T12:57:13.510Z,10.80